NORTHERN QUEENS  -  Heat Advisory Heat Advisory     Air Quality Alert Air Quality Alert        SOUTHERN QUEENS  -  Heat Advisory Heat Advisory     Air Quality Alert Air Quality Alert      

Active alerts

Northern Queens
  Details for Northern Queens Heat Advisory  +1 additional alert
Southern Queens
  Details for Southern Queens Heat Advisory  +1 additional alert


WXM80 ListenWXM80 Stop

You find our weather info also at:

UK Metoffice

WeatherCloud

Weather Underground

Northeastern Weather Network

AWEKAS

Citizen Weather Observer Program (CWOP)

HAMweather, WeatherForYou, PWS Weather


Weather Underground History page Text

Daily Summary for October 10, 2017 Units:  Both    English   Metric
« Previous Day
Next Day »
Daily Weekly Monthly Yearly Custom
  High: Low: Average:
Temperature: 82.6 °F /  28.1 °C 63.0 °F /  17.2 °C 71.5 °F /  21.9 °C
Dew Point: 73.7 °F /  23.2 °C 60.8 °F /  16 °C 66.1 °F /  18.9 °C
Humidity: 98 % 61 % 84 %
Wind Speed: 7.3 mph /  11.7 km/h - 1.1 mph /  1.8 km/h
Wind Gust: 11.5 mph /  18.5 km/h - -
Wind:- - West
Pressure: 30.06 in /  1017.8 hPa 29.53 in /  999.9 hPa -
Precipitation: 0.00 in /  0 mm    
Historical Graphs
 
 
Tabular Data for October 10, 2017
Time Temperature Dew Point Pressure Wind Wind Speed Wind Gust Humidity Rainfall Rate (Hourly)
00:07 73.7 °F /  23.2 °C 73.1 °F /  22.8 °C 29.76 in /  1007.7 hPa SW 2.6 mph /  4.2 km/h 4.6 mph /  7.4 km/h 98 % 0.00 in /  0 mm
00:12 73.9 °F /  23.3 °C 73.3 °F /  22.9 °C 29.74 in /  1007 hPa SW 0.6 mph /  1 km/h 8.1 mph /  13 km/h 98 % 0.00 in /  0 mm
00:13 73.8 °F /  23.2 °C 73.2 °F /  22.9 °C 29.75 in /  1007.3 hPa WSW 2.6 mph /  4.2 km/h 4.0 mph /  6.4 km/h 98 % 0.00 in /  0 mm
00:18 73.9 °F /  23.3 °C 73.3 °F /  22.9 °C 29.78 in /  1008.4 hPa SW 1.8 mph /  2.9 km/h 9.2 mph /  14.8 km/h 98 % 0.00 in /  0 mm
00:22 74.0 °F /  23.3 °C 73.4 °F /  23 °C 29.72 in /  1006.3 hPa SSW 4.1 mph /  6.6 km/h 10.4 mph /  16.7 km/h 98 % 0.00 in /  0 mm
00:27 74.1 °F /  23.4 °C 73.5 °F /  23.1 °C 29.73 in /  1006.7 hPa West 2.4 mph /  3.9 km/h 3.5 mph /  5.6 km/h 98 % 0.00 in /  0 mm
00:32 74.2 °F /  23.4 °C 73.6 °F /  23.1 °C 29.77 in /  1008 hPa SW 2.0 mph /  3.2 km/h 11.5 mph /  18.5 km/h 98 % 0.00 in /  0 mm
00:37 74.2 °F /  23.4 °C 73.6 °F /  23.1 °C 29.68 in /  1005 hPa WSW 2.1 mph /  3.4 km/h 5.8 mph /  9.3 km/h 98 % 0.00 in /  0 mm
00:42 74.3 °F /  23.5 °C 73.7 °F /  23.2 °C 29.63 in /  1003.3 hPa SW 1.1 mph /  1.8 km/h 5.8 mph /  9.3 km/h 98 % 0.00 in /  0 mm
00:47 74.3 °F /  23.5 °C 73.7 °F /  23.2 °C 29.66 in /  1004.3 hPa SW 3.9 mph /  6.3 km/h 6.9 mph /  11.1 km/h 98 % 0.00 in /  0 mm
00:52 74.3 °F /  23.5 °C 73.7 °F /  23.2 °C 29.68 in /  1005 hPa WSW 2.5 mph /  4 km/h 5.8 mph /  9.3 km/h 98 % 0.00 in /  0 mm
00:57 74.3 °F /  23.5 °C 73.7 °F /  23.2 °C 29.67 in /  1004.6 hPa West 1.5 mph /  2.4 km/h 6.9 mph /  11.1 km/h 98 % 0.00 in /  0 mm
01:02 74.2 °F /  23.4 °C 73.3 °F /  22.9 °C 29.68 in /  1005 hPa WSW 7.3 mph /  11.7 km/h 11.5 mph /  18.5 km/h 97 % 0.00 in /  0 mm
01:07 74.2 °F /  23.4 °C 73.3 °F /  22.9 °C 29.79 in /  1008.7 hPa West 4.4 mph /  7.1 km/h 6.9 mph /  11.1 km/h 97 % 0.00 in /  0 mm
01:13 74.1 °F /  23.4 °C 73.2 °F /  22.9 °C 29.76 in /  1007.7 hPa SW 3.1 mph /  5 km/h 4.6 mph /  7.4 km/h 97 % 0.00 in /  0 mm
01:18 74.0 °F /  23.3 °C 73.1 °F /  22.8 °C 29.76 in /  1007.7 hPa West 2.6 mph /  4.2 km/h 4.6 mph /  7.4 km/h 97 % 0.00 in /  0 mm
01:23 73.9 °F /  23.3 °C 73.0 °F /  22.8 °C 29.78 in /  1008.4 hPa SW 1.2 mph /  1.9 km/h 3.5 mph /  5.6 km/h 97 % 0.00 in /  0 mm
01:28 73.7 °F /  23.2 °C 72.5 °F /  22.5 °C 29.69 in /  1005.3 hPa West 4.6 mph /  7.4 km/h 8.1 mph /  13 km/h 96 % 0.00 in /  0 mm
01:33 73.5 °F /  23.1 °C 72.0 °F /  22.2 °C 29.53 in /  999.9 hPa WNW 1.3 mph /  2.1 km/h 6.9 mph /  11.1 km/h 95 % 0.00 in /  0 mm
01:38 73.3 °F /  22.9 °C 71.8 °F /  22.1 °C 29.77 in /  1008 hPa NW 1.8 mph /  2.9 km/h 3.5 mph /  5.6 km/h 95 % 0.00 in /  0 mm
01:43 73.2 °F /  22.9 °C 71.4 °F /  21.9 °C 29.72 in /  1006.3 hPa WNW 2.5 mph /  4 km/h 4.6 mph /  7.4 km/h 94 % 0.00 in /  0 mm
01:48 73.1 °F /  22.8 °C 71.3 °F /  21.8 °C 29.67 in /  1004.6 hPa West 0.9 mph /  1.4 km/h 3.5 mph /  5.6 km/h 94 % 0.00 in /  0 mm
01:53 73.0 °F /  22.8 °C 71.2 °F /  21.8 °C 29.69 in /  1005.3 hPa WNW 1.6 mph /  2.6 km/h 3.5 mph /  5.6 km/h 94 % 0.00 in /  0 mm
01:58 72.8 °F /  22.7 °C 70.7 °F /  21.5 °C 29.75 in /  1007.3 hPa WNW 3.0 mph /  4.8 km/h 5.8 mph /  9.3 km/h 93 % 0.00 in /  0 mm
02:03 72.7 °F /  22.6 °C 70.2 °F /  21.2 °C 29.67 in /  1004.6 hPa WNW 4.1 mph /  6.6 km/h 8.1 mph /  13 km/h 92 % 0.00 in /  0 mm
02:08 72.6 °F /  22.6 °C 70.1 °F /  21.2 °C 29.74 in /  1007 hPa NW 2.3 mph /  3.7 km/h 5.0 mph /  8 km/h 92 % 0.00 in /  0 mm
02:13 72.5 °F /  22.5 °C 70.0 °F /  21.1 °C 29.60 in /  1002.3 hPa West 5.7 mph /  9.2 km/h 10.4 mph /  16.7 km/h 92 % 0.00 in /  0 mm
02:18 72.4 °F /  22.4 °C 69.9 °F /  21.1 °C 29.76 in /  1007.7 hPa WNW 1.6 mph /  2.6 km/h 4.0 mph /  6.4 km/h 92 % 0.00 in /  0 mm
02:23 72.3 °F /  22.4 °C 69.5 °F /  20.8 °C 29.72 in /  1006.3 hPa West 2.7 mph /  4.3 km/h 4.6 mph /  7.4 km/h 91 % 0.00 in /  0 mm
02:28 72.2 °F /  22.3 °C 69.4 °F /  20.8 °C 29.75 in /  1007.3 hPa WNW 1.7 mph /  2.7 km/h 9.0 mph /  14.5 km/h 91 % 0.00 in /  0 mm
02:33 72.1 °F /  22.3 °C 69.3 °F /  20.7 °C 29.80 in /  1009 hPa WNW 3.0 mph /  4.8 km/h 5.0 mph /  8 km/h 91 % 0.00 in /  0 mm
02:38 72.0 °F /  22.2 °C 69.2 °F /  20.7 °C 29.73 in /  1006.7 hPa WNW 1.9 mph /  3.1 km/h 4.6 mph /  7.4 km/h 91 % 0.00 in /  0 mm
02:43 71.9 °F /  22.2 °C 69.1 °F /  20.6 °C 29.69 in /  1005.3 hPa WSW 1.7 mph /  2.7 km/h 5.8 mph /  9.3 km/h 91 % 0.00 in /  0 mm
02:48 71.8 °F /  22.1 °C 69.0 °F /  20.6 °C 29.74 in /  1007 hPa West 2.0 mph /  3.2 km/h 3.5 mph /  5.6 km/h 91 % 0.00 in /  0 mm
02:53 71.7 °F /  22.1 °C 68.9 °F /  20.5 °C 29.77 in /  1008 hPa West 3.5 mph /  5.6 km/h 5.8 mph /  9.3 km/h 91 % 0.00 in /  0 mm
03:03 71.4 °F /  21.9 °C 68.6 °F /  20.3 °C 29.78 in /  1008.4 hPa WSW 3.3 mph /  5.3 km/h 4.6 mph /  7.4 km/h 91 % 0.00 in /  0 mm
03:08 71.3 °F /  21.8 °C 68.5 °F /  20.3 °C 29.77 in /  1008 hPa NW 1.4 mph /  2.3 km/h 3.5 mph /  5.6 km/h 91 % 0.00 in /  0 mm
03:13 71.2 °F /  21.8 °C 68.1 °F /  20.1 °C 29.76 in /  1007.7 hPa NW 0.6 mph /  1 km/h 3.5 mph /  5.6 km/h 90 % 0.00 in /  0 mm
03:18 71.0 °F /  21.7 °C 68.2 °F /  20.1 °C 29.80 in /  1009 hPa West 2.1 mph /  3.4 km/h 4.6 mph /  7.4 km/h 91 % 0.00 in /  0 mm
03:28 70.8 °F /  21.6 °C 68.0 °F /  20 °C 29.72 in /  1006.3 hPa WSW 2.3 mph /  3.7 km/h 3.5 mph /  5.6 km/h 91 % 0.00 in /  0 mm
03:33 70.7 °F /  21.5 °C 67.9 °F /  19.9 °C 29.72 in /  1006.3 hPa WNW 2.4 mph /  3.9 km/h 5.0 mph /  8 km/h 91 % 0.00 in /  0 mm
03:38 70.5 °F /  21.4 °C 67.7 °F /  19.8 °C 29.68 in /  1005 hPa WSW 0.9 mph /  1.4 km/h 3.5 mph /  5.6 km/h 91 % 0.00 in /  0 mm
03:43 70.4 °F /  21.3 °C 67.6 °F /  19.8 °C 29.66 in /  1004.3 hPa WSW 1.8 mph /  2.9 km/h 3.5 mph /  5.6 km/h 91 % 0.00 in /  0 mm
03:48 70.3 °F /  21.3 °C 67.5 °F /  19.7 °C 29.67 in /  1004.6 hPa WSW 1.5 mph /  2.4 km/h 5.0 mph /  8 km/h 91 % 0.00 in /  0 mm
03:53 70.2 °F /  21.2 °C 67.4 °F /  19.7 °C 29.66 in /  1004.3 hPa WSW 0.6 mph /  1 km/h 1.2 mph /  1.9 km/h 91 % 0.00 in /  0 mm
03:58 70.1 °F /  21.2 °C 67.3 °F /  19.6 °C 29.78 in /  1008.4 hPa West 2.4 mph /  3.9 km/h 5.8 mph /  9.3 km/h 91 % 0.00 in /  0 mm
04:04 69.9 °F /  21.1 °C 67.2 °F /  19.6 °C 29.79 in /  1008.7 hPa WNW 3.1 mph /  5 km/h 6.9 mph /  11.1 km/h 91 % 0.00 in /  0 mm
04:09 69.9 °F /  21.1 °C 67.2 °F /  19.6 °C 29.78 in /  1008.4 hPa WNW 1.3 mph /  2.1 km/h 3.5 mph /  5.6 km/h 91 % 0.00 in /  0 mm
04:14 69.7 °F /  20.9 °C 67.0 °F /  19.4 °C 29.57 in /  1001.2 hPa WSW 1.6 mph /  2.6 km/h 5.0 mph /  8 km/h 91 % 0.00 in /  0 mm
04:19 69.6 °F /  20.9 °C 66.9 °F /  19.4 °C 29.59 in /  1001.9 hPa WNW 2.4 mph /  3.9 km/h 3.5 mph /  5.6 km/h 91 % 0.00 in /  0 mm
04:24 69.5 °F /  20.8 °C 66.8 °F /  19.3 °C 29.72 in /  1006.3 hPa WNW 1.8 mph /  2.9 km/h 3.5 mph /  5.6 km/h 91 % 0.00 in /  0 mm
04:29 69.4 °F /  20.8 °C 66.7 °F /  19.3 °C 29.74 in /  1007 hPa West 0.9 mph /  1.4 km/h 3.5 mph /  5.6 km/h 91 % 0.00 in /  0 mm
04:34 69.3 °F /  20.7 °C 66.6 °F /  19.2 °C 29.65 in /  1003.9 hPa WNW 0.9 mph /  1.4 km/h 3.5 mph /  5.6 km/h 91 % 0.00 in /  0 mm
04:39 69.2 °F /  20.7 °C 66.8 °F /  19.3 °C 29.64 in /  1003.6 hPa WNW 0.2 mph /  0.3 km/h 1.2 mph /  1.9 km/h 92 % 0.00 in /  0 mm
04:44 69.1 °F /  20.6 °C 66.4 °F /  19.1 °C 29.74 in /  1007 hPa West 1.8 mph /  2.9 km/h 3.5 mph /  5.6 km/h 91 % 0.00 in /  0 mm
04:49 69.0 °F /  20.6 °C 66.6 °F /  19.2 °C 29.79 in /  1008.7 hPa West 1.9 mph /  3.1 km/h 3.5 mph /  5.6 km/h 92 % 0.00 in /  0 mm
04:54 68.9 °F /  20.5 °C 66.5 °F /  19.2 °C 29.79 in /  1008.7 hPa WNW 2.4 mph /  3.9 km/h 3.5 mph /  5.6 km/h 92 % 0.00 in /  0 mm
04:59 68.8 °F /  20.4 °C 66.4 °F /  19.1 °C 29.83 in /  1010 hPa WNW 0.2 mph /  0.3 km/h 3.0 mph /  4.8 km/h 92 % 0.00 in /  0 mm
05:04 68.6 °F /  20.3 °C 66.2 °F /  19 °C 29.78 in /  1008.4 hPa WNW 1.9 mph /  3.1 km/h 3.5 mph /  5.6 km/h 92 % 0.00 in /  0 mm
05:09 68.6 °F /  20.3 °C 66.2 °F /  19 °C 29.79 in /  1008.7 hPa WNW 2.6 mph /  4.2 km/h 3.5 mph /  5.6 km/h 92 % 0.00 in /  0 mm
05:14 68.5 °F /  20.3 °C 66.1 °F /  18.9 °C 29.83 in /  1010 hPa West 1.5 mph /  2.4 km/h 3.5 mph /  5.6 km/h 92 % 0.00 in /  0 mm
05:19 68.4 °F /  20.2 °C 66.0 °F /  18.9 °C 29.78 in /  1008.4 hPa West 1.8 mph /  2.9 km/h 3.5 mph /  5.6 km/h 92 % 0.00 in /  0 mm
05:24 68.3 °F /  20.2 °C 65.9 °F /  18.8 °C 29.85 in /  1010.7 hPa NW 0.8 mph /  1.3 km/h 3.5 mph /  5.6 km/h 92 % 0.00 in /  0 mm
05:29 68.3 °F /  20.2 °C 65.9 °F /  18.8 °C 29.76 in /  1007.7 hPa WNW 0.7 mph /  1.1 km/h 3.0 mph /  4.8 km/h 92 % 0.00 in /  0 mm
05:34 68.2 °F /  20.1 °C 65.8 °F /  18.8 °C 29.60 in /  1002.3 hPa WNW 0.2 mph /  0.3 km/h 3.5 mph /  5.6 km/h 92 % 0.00 in /  0 mm
05:39 68.1 °F /  20.1 °C 66.0 °F /  18.9 °C 29.67 in /  1004.6 hPa WNW 0.2 mph /  0.3 km/h   93 % 0.00 in /  0 mm
05:44 68.0 °F /  20 °C 65.9 °F /  18.8 °C 29.65 in /  1003.9 hPa WNW 0.5 mph /  0.8 km/h 2.3 mph /  3.7 km/h 93 % 0.00 in /  0 mm
05:49 67.9 °F /  19.9 °C 65.8 °F /  18.8 °C 29.63 in /  1003.3 hPa WNW 0.2 mph /  0.3 km/h 2.0 mph /  3.2 km/h 93 % 0.00 in /  0 mm
05:54 67.9 °F /  19.9 °C 65.8 °F /  18.8 °C 29.71 in /  1006 hPa WNW 0.1 mph /  0.2 km/h 3.5 mph /  5.6 km/h 93 % 0.00 in /  0 mm
05:55 67.9 °F /  19.9 °C 65.8 °F /  18.8 °C 29.71 in /  1006 hPa NW 0.8 mph /  1.3 km/h 3.5 mph /  5.6 km/h 93 % 0.00 in /  0 mm
06:00 67.7 °F /  19.8 °C 65.6 °F /  18.7 °C 29.88 in /  1011.7 hPa NW 0.2 mph /  0.3 km/h 3.5 mph /  5.6 km/h 93 % 0.00 in /  0 mm
06:05 67.6 °F /  19.8 °C 65.5 °F /  18.6 °C 29.75 in /  1007.3 hPa NW 0.1 mph /  0.2 km/h 2.3 mph /  3.7 km/h 93 % 0.00 in /  0 mm
06:10 67.5 °F /  19.7 °C 65.4 °F /  18.6 °C 29.67 in /  1004.6 hPa NNW 0.7 mph /  1.1 km/h 2.3 mph /  3.7 km/h 93 % 0.00 in /  0 mm
06:15 67.5 °F /  19.7 °C 65.4 °F /  18.6 °C 29.71 in /  1006 hPa NNW 0.3 mph /  0.5 km/h 2.0 mph /  3.2 km/h 93 % 0.00 in /  0 mm
06:20 67.4 °F /  19.7 °C 65.3 °F /  18.5 °C 29.71 in /  1006 hPa NW 0.3 mph /  0.5 km/h 3.5 mph /  5.6 km/h 93 % 0.00 in /  0 mm
06:25 67.3 °F /  19.6 °C 65.2 °F /  18.4 °C 29.82 in /  1009.7 hPa NNW 1.3 mph /  2.1 km/h 3.0 mph /  4.8 km/h 93 % 0.00 in /  0 mm
06:30 67.2 °F /  19.6 °C 65.1 °F /  18.4 °C 29.85 in /  1010.7 hPa NNW 1.0 mph /  1.6 km/h 4.0 mph /  6.4 km/h 93 % 0.00 in /  0 mm
06:35 67.2 °F /  19.6 °C 65.1 °F /  18.4 °C 29.84 in /  1010.4 hPa NNW 1.0 mph /  1.6 km/h 4.0 mph /  6.4 km/h 93 % 0.00 in /  0 mm
06:45 67.0 °F /  19.4 °C 64.6 °F /  18.1 °C 29.76 in /  1007.7 hPa NNW 1.0 mph /  1.6 km/h 5.0 mph /  8 km/h 92 % 0.00 in /  0 mm
06:51 66.9 °F /  19.4 °C 64.5 °F /  18.1 °C 29.84 in /  1010.4 hPa NNW 1.0 mph /  1.6 km/h 5.0 mph /  8 km/h 92 % 0.00 in /  0 mm
06:56 66.8 °F /  19.3 °C 64.4 °F /  18 °C 29.91 in /  1012.8 hPa NNW 0.1 mph /  0.2 km/h 2.3 mph /  3.7 km/h 92 % 0.00 in /  0 mm
07:01 66.8 °F /  19.3 °C 64.4 °F /  18 °C 29.91 in /  1012.8 hPa NW 0.5 mph /  0.8 km/h 3.0 mph /  4.8 km/h 92 % 0.00 in /  0 mm
07:06 66.7 °F /  19.3 °C 64.3 °F /  17.9 °C 29.87 in /  1011.4 hPa NW 0.7 mph /  1.1 km/h 2.3 mph /  3.7 km/h 92 % 0.00 in /  0 mm
07:11 66.7 °F /  19.3 °C 64.0 °F /  17.8 °C 29.78 in /  1008.4 hPa NNW 0.1 mph /  0.2 km/h 1.2 mph /  1.9 km/h 91 % 0.00 in /  0 mm
07:16 66.6 °F /  19.2 °C 63.9 °F /  17.7 °C 29.86 in /  1011.1 hPa NNW 0.7 mph /  1.1 km/h 2.3 mph /  3.7 km/h 91 % 0.00 in /  0 mm
07:31 66.5 °F /  19.2 °C 63.8 °F /  17.7 °C 29.85 in /  1010.7 hPa NW 0.2 mph /  0.3 km/h 3.5 mph /  5.6 km/h 91 % 0.00 in /  0 mm
07:36 66.5 °F /  19.2 °C 63.8 °F /  17.7 °C 29.92 in /  1013.1 hPa NW 0.2 mph /  0.3 km/h 2.3 mph /  3.7 km/h 91 % 0.00 in /  0 mm
07:41 66.5 °F /  19.2 °C 63.8 °F /  17.7 °C 29.95 in /  1014.1 hPa Calm   1.2 mph /  1.9 km/h 91 % 0.00 in /  0 mm
07:46 66.6 °F /  19.2 °C 63.9 °F /  17.7 °C 29.83 in /  1010 hPa NNW 0.1 mph /  0.2 km/h 1.2 mph /  1.9 km/h 91 % 0.00 in /  0 mm
07:51 66.6 °F /  19.2 °C 63.9 °F /  17.7 °C 29.68 in /  1005 hPa NNW 0.2 mph /  0.3 km/h 1.2 mph /  1.9 km/h 91 % 0.00 in /  0 mm
07:53 66.7 °F /  19.3 °C 64.0 °F /  17.8 °C 29.65 in /  1003.9 hPa NNW 0.4 mph /  0.6 km/h 1.2 mph /  1.9 km/h 91 % 0.00 in /  0 mm
07:58 66.7 °F /  19.3 °C 64.0 °F /  17.8 °C 29.86 in /  1011.1 hPa NNW 2.1 mph /  3.4 km/h 3.5 mph /  5.6 km/h 91 % 0.00 in /  0 mm
08:03 66.7 °F /  19.3 °C 64.0 °F /  17.8 °C 29.81 in /  1009.4 hPa NNW 1.2 mph /  1.9 km/h 3.5 mph /  5.6 km/h 91 % 0.00 in /  0 mm
08:08 66.8 °F /  19.3 °C 63.8 °F /  17.7 °C 29.90 in /  1012.4 hPa NNW 0.2 mph /  0.3 km/h 1.2 mph /  1.9 km/h 90 % 0.00 in /  0 mm
08:13 66.8 °F /  19.3 °C 63.8 °F /  17.7 °C 29.81 in /  1009.4 hPa NNW 1.7 mph /  2.7 km/h 3.5 mph /  5.6 km/h 90 % 0.00 in /  0 mm
08:18 66.9 °F /  19.4 °C 63.9 °F /  17.7 °C 29.80 in /  1009 hPa WNW 0.3 mph /  0.5 km/h 3.5 mph /  5.6 km/h 90 % 0.00 in /  0 mm
08:23 67.0 °F /  19.4 °C 64.0 °F /  17.8 °C 29.79 in /  1008.7 hPa NW 0.1 mph /  0.2 km/h 3.5 mph /  5.6 km/h 90 % 0.00 in /  0 mm
08:28 67.0 °F /  19.4 °C 64.0 °F /  17.8 °C 29.83 in /  1010 hPa North 1.9 mph /  3.1 km/h 4.6 mph /  7.4 km/h 90 % 0.00 in /  0 mm
08:33 67.1 °F /  19.5 °C 64.1 °F /  17.8 °C 29.74 in /  1007 hPa NNE 0.8 mph /  1.3 km/h 3.5 mph /  5.6 km/h 90 % 0.00 in /  0 mm
08:38 67.2 °F /  19.6 °C 63.8 °F /  17.7 °C 29.80 in /  1009 hPa North 0.2 mph /  0.3 km/h 1.2 mph /  1.9 km/h 89 % 0.00 in /  0 mm
08:43 67.2 °F /  19.6 °C 63.8 °F /  17.7 °C 29.78 in /  1008.4 hPa North 0.2 mph /  0.3 km/h 3.5 mph /  5.6 km/h 89 % 0.00 in /  0 mm
08:48 67.3 °F /  19.6 °C 63.6 °F /  17.6 °C 29.90 in /  1012.4 hPa NNE 2.7 mph /  4.3 km/h 4.6 mph /  7.4 km/h 88 % 0.00 in /  0 mm
08:53 67.4 °F /  19.7 °C 64.0 °F /  17.8 °C 29.59 in /  1001.9 hPa North 0.1 mph /  0.2 km/h 2.0 mph /  3.2 km/h 89 % 0.00 in /  0 mm
08:58 67.5 °F /  19.7 °C 63.8 °F /  17.7 °C 29.90 in /  1012.4 hPa NNE 0.6 mph /  1 km/h 1.2 mph /  1.9 km/h 88 % 0.00 in /  0 mm
09:03 67.5 °F /  19.7 °C 63.8 °F /  17.7 °C 29.90 in /  1012.4 hPa NNE 0.3 mph /  0.5 km/h 1.2 mph /  1.9 km/h 88 % 0.00 in /  0 mm
09:08 67.6 °F /  19.8 °C 63.9 °F /  17.7 °C 29.93 in /  1013.4 hPa NNW 1.2 mph /  1.9 km/h 3.5 mph /  5.6 km/h 88 % 0.00 in /  0 mm
09:13 67.6 °F /  19.8 °C 63.9 °F /  17.7 °C 29.88 in /  1011.7 hPa Calm   1.2 mph /  1.9 km/h 88 % 0.00 in /  0 mm
09:18 67.7 °F /  19.8 °C 64.0 °F /  17.8 °C 29.92 in /  1013.1 hPa NW 1.4 mph /  2.3 km/h 3.5 mph /  5.6 km/h 88 % 0.00 in /  0 mm
09:23 67.7 °F /  19.8 °C 63.7 °F /  17.6 °C 29.92 in /  1013.1 hPa Calm   3.5 mph /  5.6 km/h 87 % 0.00 in /  0 mm
09:28 67.8 °F /  19.9 °C 64.1 °F /  17.8 °C 29.92 in /  1013.1 hPa NW 0.9 mph /  1.4 km/h 3.5 mph /  5.6 km/h 88 % 0.00 in /  0 mm
09:33 67.9 °F /  19.9 °C 63.9 °F /  17.7 °C 29.92 in /  1013.1 hPa NW 1.9 mph /  3.1 km/h 3.5 mph /  5.6 km/h 87 % 0.00 in /  0 mm
09:38 67.9 °F /  19.9 °C 63.9 °F /  17.7 °C 29.62 in /  1002.9 hPa NW 1.0 mph /  1.6 km/h 3.0 mph /  4.8 km/h 87 % 0.00 in /  0 mm
09:44 68.0 °F /  20 °C 64.0 °F /  17.8 °C 29.86 in /  1011.1 hPa NNW 0.3 mph /  0.5 km/h 1.2 mph /  1.9 km/h 87 % 0.00 in /  0 mm
09:49 68.1 °F /  20.1 °C 64.1 °F /  17.8 °C 29.87 in /  1011.4 hPa NNW 0.9 mph /  1.4 km/h 3.5 mph /  5.6 km/h 87 % 0.00 in /  0 mm
09:54 68.2 °F /  20.1 °C 63.9 °F /  17.7 °C 29.87 in /  1011.4 hPa WNW 1.0 mph /  1.6 km/h 3.5 mph /  5.6 km/h 86 % 0.00 in /  0 mm
10:09 68.8 °F /  20.4 °C 64.8 °F /  18.2 °C 29.68 in /  1005 hPa WNW 2.9 mph /  4.7 km/h 5.8 mph /  9.3 km/h 87 % 0.00 in /  0 mm
10:14 68.9 °F /  20.5 °C 64.5 °F /  18.1 °C 29.88 in /  1011.7 hPa WNW 2.0 mph /  3.2 km/h 3.5 mph /  5.6 km/h 86 % 0.00 in /  0 mm
10:19 69.2 °F /  20.7 °C 64.8 °F /  18.2 °C 29.76 in /  1007.7 hPa WNW 1.3 mph /  2.1 km/h 4.0 mph /  6.4 km/h 86 % 0.00 in /  0 mm
10:20 69.3 °F /  20.7 °C 64.9 °F /  18.3 °C 29.95 in /  1014.1 hPa West 1.9 mph /  3.1 km/h 5.8 mph /  9.3 km/h 86 % 0.00 in /  0 mm
10:25 69.5 °F /  20.8 °C 65.1 °F /  18.4 °C 29.75 in /  1007.3 hPa WSW 2.0 mph /  3.2 km/h 4.6 mph /  7.4 km/h 86 % 0.00 in /  0 mm
10:30 69.7 °F /  20.9 °C 65.0 °F /  18.3 °C 29.89 in /  1012.1 hPa West 1.7 mph /  2.7 km/h 3.5 mph /  5.6 km/h 85 % 0.00 in /  0 mm
10:35 69.9 °F /  21.1 °C 64.8 °F /  18.2 °C 29.89 in /  1012.1 hPa West 0.1 mph /  0.2 km/h 2.3 mph /  3.7 km/h 84 % 0.00 in /  0 mm
10:40 70.2 °F /  21.2 °C 65.1 °F /  18.4 °C 29.96 in /  1014.4 hPa WSW 3.0 mph /  4.8 km/h 5.0 mph /  8 km/h 84 % 0.00 in /  0 mm
10:45 70.5 °F /  21.4 °C 65.1 °F /  18.4 °C 29.95 in /  1014.1 hPa WSW 2.0 mph /  3.2 km/h 4.6 mph /  7.4 km/h 83 % 0.00 in /  0 mm
10:50 70.8 °F /  21.6 °C 65.7 °F /  18.7 °C 29.95 in /  1014.1 hPa WNW 1.7 mph /  2.7 km/h 7.0 mph /  11.3 km/h 84 % 0.00 in /  0 mm
10:55 71.1 °F /  21.7 °C 65.7 °F /  18.7 °C 29.95 in /  1014.1 hPa West 1.7 mph /  2.7 km/h 2.0 mph /  3.2 km/h 83 % 0.00 in /  0 mm
11:00 71.4 °F /  21.9 °C 66.0 °F /  18.9 °C 29.74 in /  1007 hPa WNW 3.2 mph /  5.1 km/h 5.0 mph /  8 km/h 83 % 0.00 in /  0 mm
11:05 71.9 °F /  22.2 °C 66.1 °F /  18.9 °C 29.84 in /  1010.4 hPa West 3.9 mph /  6.3 km/h 6.9 mph /  11.1 km/h 82 % 0.00 in /  0 mm
11:10 72.2 °F /  22.3 °C 66.4 °F /  19.1 °C 29.93 in /  1013.4 hPa SSW 3.7 mph /  6 km/h 7.0 mph /  11.3 km/h 82 % 0.00 in /  0 mm
11:13 72.4 °F /  22.4 °C 66.6 °F /  19.2 °C 29.94 in /  1013.8 hPa NW 0.9 mph /  1.4 km/h 5.8 mph /  9.3 km/h 82 % 0.00 in /  0 mm
11:18 72.8 °F /  22.7 °C 67.0 °F /  19.4 °C 29.86 in /  1011.1 hPa WNW 0.4 mph /  0.6 km/h 3.0 mph /  4.8 km/h 82 % 0.00 in /  0 mm
11:23 73.2 °F /  22.9 °C 67.4 °F /  19.7 °C 29.98 in /  1015.1 hPa WSW 0.9 mph /  1.4 km/h 3.5 mph /  5.6 km/h 82 % 0.00 in /  0 mm
11:28 73.9 °F /  23.3 °C 67.7 °F /  19.8 °C 29.95 in /  1014.1 hPa SW 2.2 mph /  3.5 km/h 4.0 mph /  6.4 km/h 81 % 0.00 in /  0 mm
11:38 75.2 °F /  24 °C 68.2 °F /  20.1 °C 29.95 in /  1014.1 hPa WSW 1.1 mph /  1.8 km/h 3.5 mph /  5.6 km/h 79 % 0.00 in /  0 mm
11:43 75.9 °F /  24.4 °C 67.4 °F /  19.7 °C 29.93 in /  1013.4 hPa WSW 2.7 mph /  4.3 km/h 7.0 mph /  11.3 km/h 75 % 0.00 in /  0 mm
11:48 76.2 °F /  24.6 °C 67.7 °F /  19.8 °C 29.93 in /  1013.4 hPa WSW 1.1 mph /  1.8 km/h 3.5 mph /  5.6 km/h 75 % 0.00 in /  0 mm
11:53 76.6 °F /  24.8 °C 67.7 °F /  19.8 °C 29.96 in /  1014.4 hPa SSW 1.5 mph /  2.4 km/h 6.0 mph /  9.7 km/h 74 % 0.00 in /  0 mm
11:58 77.0 °F /  25 °C 68.1 °F /  20.1 °C 29.92 in /  1013.1 hPa SW 1.1 mph /  1.8 km/h 2.3 mph /  3.7 km/h 74 % 0.00 in /  0 mm
12:03 77.3 °F /  25.2 °C 68.4 °F /  20.2 °C 29.74 in /  1007 hPa SW 1.1 mph /  1.8 km/h 3.5 mph /  5.6 km/h 74 % 0.00 in /  0 mm
12:08 77.5 °F /  25.3 °C 68.6 °F /  20.3 °C 29.92 in /  1013.1 hPa SW 2.5 mph /  4 km/h 3.5 mph /  5.6 km/h 74 % 0.00 in /  0 mm
12:18 78.0 °F /  25.6 °C 69.0 °F /  20.6 °C 29.94 in /  1013.8 hPa WSW 1.4 mph /  2.3 km/h 3.5 mph /  5.6 km/h 74 % 0.00 in /  0 mm
12:23 78.3 °F /  25.7 °C 68.1 °F /  20.1 °C 29.91 in /  1012.8 hPa SSW 2.3 mph /  3.7 km/h 4.6 mph /  7.4 km/h 71 % 0.00 in /  0 mm
12:28 78.9 °F /  26.1 °C 68.7 °F /  20.4 °C 29.93 in /  1013.4 hPa West 3.2 mph /  5.1 km/h 4.6 mph /  7.4 km/h 71 % 0.00 in /  0 mm
12:33 79.1 °F /  26.2 °C 67.6 °F /  19.8 °C 29.93 in /  1013.4 hPa West 4.5 mph /  7.2 km/h 5.8 mph /  9.3 km/h 68 % 0.00 in /  0 mm
12:38 79.4 °F /  26.3 °C 67.9 °F /  19.9 °C 29.94 in /  1013.8 hPa West 3.7 mph /  6 km/h 4.6 mph /  7.4 km/h 68 % 0.00 in /  0 mm
12:48 79.6 °F /  26.4 °C 67.7 °F /  19.8 °C 29.93 in /  1013.4 hPa WNW 3.1 mph /  5 km/h 4.6 mph /  7.4 km/h 67 % 0.00 in /  0 mm
12:53 79.5 °F /  26.4 °C 67.6 °F /  19.8 °C 29.97 in /  1014.8 hPa WSW 2.7 mph /  4.3 km/h 5.8 mph /  9.3 km/h 67 % 0.00 in /  0 mm
12:58 79.3 °F /  26.3 °C 67.4 °F /  19.7 °C 29.93 in /  1013.4 hPa NW 1.6 mph /  2.6 km/h 3.5 mph /  5.6 km/h 67 % 0.00 in /  0 mm
13:03 79.1 °F /  26.2 °C 67.6 °F /  19.8 °C 29.93 in /  1013.4 hPa West 0.5 mph /  0.8 km/h 3.5 mph /  5.6 km/h 68 % 0.00 in /  0 mm
13:08 79.0 °F /  26.1 °C 67.1 °F /  19.5 °C 29.93 in /  1013.4 hPa WNW 2.0 mph /  3.2 km/h 3.5 mph /  5.6 km/h 67 % 0.00 in /  0 mm
13:13 79.0 °F /  26.1 °C 67.5 °F /  19.7 °C 29.91 in /  1012.8 hPa WSW 3.2 mph /  5.1 km/h 5.8 mph /  9.3 km/h 68 % 0.00 in /  0 mm
13:18 79.0 °F /  26.1 °C 68.0 °F /  20 °C 29.96 in /  1014.4 hPa WNW 0.7 mph /  1.1 km/h 4.0 mph /  6.4 km/h 69 % 0.00 in /  0 mm
13:23 79.0 °F /  26.1 °C 67.5 °F /  19.7 °C 29.93 in /  1013.4 hPa SSW 2.0 mph /  3.2 km/h 5.0 mph /  8 km/h 68 % 0.00 in /  0 mm
13:28 79.2 °F /  26.2 °C 68.1 °F /  20.1 °C 29.96 in /  1014.4 hPa SW 3.5 mph /  5.6 km/h 5.8 mph /  9.3 km/h 69 % 0.00 in /  0 mm
13:33 79.5 °F /  26.4 °C 67.6 °F /  19.8 °C 29.97 in /  1014.8 hPa WSW 1.8 mph /  2.9 km/h 3.5 mph /  5.6 km/h 67 % 0.00 in /  0 mm
13:38 79.8 °F /  26.6 °C 68.3 °F /  20.2 °C 29.93 in /  1013.4 hPa WSW 1.9 mph /  3.1 km/h 3.5 mph /  5.6 km/h 68 % 0.00 in /  0 mm
13:43 80.1 °F /  26.7 °C 68.2 °F /  20.1 °C 29.94 in /  1013.8 hPa SW 0.3 mph /  0.5 km/h 4.6 mph /  7.4 km/h 67 % 0.00 in /  0 mm
13:48 80.6 °F /  27 °C 68.6 °F /  20.3 °C 29.85 in /  1010.7 hPa WNW 0.9 mph /  1.4 km/h 5.0 mph /  8 km/h 67 % 0.00 in /  0 mm
13:54 81.0 °F /  27.2 °C 69.4 °F /  20.8 °C 29.96 in /  1014.4 hPa West 3.3 mph /  5.3 km/h 6.9 mph /  11.1 km/h 68 % 0.00 in /  0 mm
13:59 81.2 °F /  27.3 °C 68.3 °F /  20.2 °C 29.93 in /  1013.4 hPa WNW 2.8 mph /  4.5 km/h 8.1 mph /  13 km/h 65 % 0.00 in /  0 mm
14:04 81.7 °F /  27.6 °C 68.3 °F /  20.2 °C 29.90 in /  1012.4 hPa NNE 0.1 mph /  0.2 km/h 2.3 mph /  3.7 km/h 64 % 0.00 in /  0 mm
14:09 81.9 °F /  27.7 °C 69.0 °F /  20.6 °C 29.90 in /  1012.4 hPa WNW 2.4 mph /  3.9 km/h 4.6 mph /  7.4 km/h 65 % 0.00 in /  0 mm
14:14 82.0 °F /  27.8 °C 69.1 °F /  20.6 °C 29.89 in /  1012.1 hPa NW 0.2 mph /  0.3 km/h 2.3 mph /  3.7 km/h 65 % 0.00 in /  0 mm
14:19 82.1 °F /  27.8 °C 67.8 °F /  19.9 °C 29.90 in /  1012.4 hPa WNW 2.5 mph /  4 km/h 6.0 mph /  9.7 km/h 62 % 0.00 in /  0 mm
14:24 82.3 °F /  27.9 °C 68.0 °F /  20 °C 29.88 in /  1011.7 hPa NW 2.3 mph /  3.7 km/h 4.6 mph /  7.4 km/h 62 % 0.00 in /  0 mm
14:29 82.5 °F /  28.1 °C 68.2 °F /  20.1 °C 29.85 in /  1010.7 hPa NNE 0.7 mph /  1.1 km/h 2.3 mph /  3.7 km/h 62 % 0.00 in /  0 mm
14:34 82.6 °F /  28.1 °C 68.3 °F /  20.2 °C 29.92 in /  1013.1 hPa NW 1.5 mph /  2.4 km/h 3.5 mph /  5.6 km/h 62 % 0.00 in /  0 mm
14:39 82.4 °F /  28 °C 67.6 °F /  19.8 °C 29.86 in /  1011.1 hPa NNE 3.5 mph /  5.6 km/h 4.6 mph /  7.4 km/h 61 % 0.00 in /  0 mm
14:44 82.1 °F /  27.8 °C 68.7 °F /  20.4 °C 29.86 in /  1011.1 hPa NW 0.6 mph /  1 km/h 3.5 mph /  5.6 km/h 64 % 0.00 in /  0 mm
14:49 81.9 °F /  27.7 °C 68.5 °F /  20.3 °C 29.86 in /  1011.1 hPa North 0.2 mph /  0.3 km/h 1.2 mph /  1.9 km/h 64 % 0.00 in /  0 mm
14:54 81.7 °F /  27.6 °C 68.3 °F /  20.2 °C 29.86 in /  1011.1 hPa WNW 1.4 mph /  2.3 km/h 4.6 mph /  7.4 km/h 64 % 0.00 in /  0 mm
14:59 81.4 °F /  27.4 °C 67.6 °F /  19.8 °C 29.86 in /  1011.1 hPa NW 2.0 mph /  3.2 km/h 4.6 mph /  7.4 km/h 63 % 0.00 in /  0 mm
15:04 81.1 °F /  27.3 °C 68.2 °F /  20.1 °C 29.92 in /  1013.1 hPa Calm   1.2 mph /  1.9 km/h 65 % 0.00 in /  0 mm
15:07 80.7 °F /  27.1 °C 68.3 °F /  20.2 °C 29.92 in /  1013.1 hPa WNW 0.5 mph /  0.8 km/h 2.3 mph /  3.7 km/h 66 % 0.00 in /  0 mm
15:12 80.2 °F /  26.8 °C 67.8 °F /  19.9 °C 29.90 in /  1012.4 hPa Calm   1.2 mph /  1.9 km/h 66 % 0.00 in /  0 mm
15:17 79.8 °F /  26.6 °C 67.9 °F /  19.9 °C 29.92 in /  1013.1 hPa WNW 0.7 mph /  1.1 km/h 2.3 mph /  3.7 km/h 67 % 0.00 in /  0 mm
15:22 79.5 °F /  26.4 °C 68.4 °F /  20.2 °C 29.87 in /  1011.4 hPa WNW 1.0 mph /  1.6 km/h 3.5 mph /  5.6 km/h 69 % 0.00 in /  0 mm
15:27 79.3 °F /  26.3 °C 67.8 °F /  19.9 °C 29.92 in /  1013.1 hPa WNW 1.0 mph /  1.6 km/h 3.5 mph /  5.6 km/h 68 % 0.00 in /  0 mm
15:32 79.2 °F /  26.2 °C 67.3 °F /  19.6 °C 29.89 in /  1012.1 hPa WNW 0.1 mph /  0.2 km/h 2.3 mph /  3.7 km/h 67 % 0.00 in /  0 mm
15:37 78.9 °F /  26.1 °C 66.6 °F /  19.2 °C 29.90 in /  1012.4 hPa NW 1.1 mph /  1.8 km/h 3.5 mph /  5.6 km/h 66 % 0.00 in /  0 mm
15:42 78.8 °F /  26 °C 67.8 °F /  19.9 °C 29.85 in /  1010.7 hPa Calm   1.2 mph /  1.9 km/h 69 % 0.00 in /  0 mm
15:47 78.7 °F /  25.9 °C 66.8 °F /  19.3 °C 29.87 in /  1011.4 hPa North 1.8 mph /  2.9 km/h 3.5 mph /  5.6 km/h 67 % 0.00 in /  0 mm
15:52 78.6 °F /  25.9 °C 65.8 °F /  18.8 °C 29.87 in /  1011.4 hPa WNW 0.6 mph /  1 km/h 3.5 mph /  5.6 km/h 65 % 0.00 in /  0 mm
15:57 78.4 °F /  25.8 °C 66.5 °F /  19.2 °C 29.92 in /  1013.1 hPa WNW 3.1 mph /  5 km/h 3.5 mph /  5.6 km/h 67 % 0.00 in /  0 mm
16:02 78.3 °F /  25.7 °C 66.4 °F /  19.1 °C 29.92 in /  1013.1 hPa Calm     67 % 0.00 in /  0 mm
16:08 78.2 °F /  25.7 °C 66.3 °F /  19.1 °C 29.92 in /  1013.1 hPa North 2.3 mph /  3.7 km/h 2.3 mph /  3.7 km/h 67 % 0.00 in /  0 mm
16:13 78.0 °F /  25.6 °C 66.2 °F /  19 °C 29.92 in /  1013.1 hPa NW 0.8 mph /  1.3 km/h 1.2 mph /  1.9 km/h 67 % 0.00 in /  0 mm
16:18 77.7 °F /  25.4 °C 66.3 °F /  19.1 °C 29.92 in /  1013.1 hPa NW 0.5 mph /  0.8 km/h 2.3 mph /  3.7 km/h 68 % 0.00 in /  0 mm
16:23 77.5 °F /  25.3 °C 66.5 °F /  19.2 °C 29.92 in /  1013.1 hPa Calm   1.2 mph /  1.9 km/h 69 % 0.00 in /  0 mm
16:28 77.4 °F /  25.2 °C 66.4 °F /  19.1 °C 29.88 in /  1011.7 hPa WNW 0.2 mph /  0.3 km/h 3.5 mph /  5.6 km/h 69 % 0.00 in /  0 mm
16:33 77.2 °F /  25.1 °C 66.2 °F /  19 °C 29.92 in /  1013.1 hPa West 1.0 mph /  1.6 km/h 2.3 mph /  3.7 km/h 69 % 0.00 in /  0 mm
16:38 77.1 °F /  25.1 °C 66.1 °F /  18.9 °C 29.92 in /  1013.1 hPa Calm     69 % 0.00 in /  0 mm
16:43 77.0 °F /  25 °C 66.0 °F /  18.9 °C 29.92 in /  1013.1 hPa West 1.6 mph /  2.6 km/h 3.5 mph /  5.6 km/h 69 % 0.00 in /  0 mm
16:48 76.9 °F /  24.9 °C 66.0 °F /  18.9 °C 29.91 in /  1012.8 hPa West 0.8 mph /  1.3 km/h 2.3 mph /  3.7 km/h 69 % 0.00 in /  0 mm
16:53 76.8 °F /  24.9 °C 65.9 °F /  18.8 °C 29.91 in /  1012.8 hPa West 0.3 mph /  0.5 km/h 2.0 mph /  3.2 km/h 69 % 0.00 in /  0 mm
16:58 76.6 °F /  24.8 °C 65.7 °F /  18.7 °C 29.97 in /  1014.8 hPa Calm     69 % 0.00 in /  0 mm
17:03 76.4 °F /  24.7 °C 65.5 °F /  18.6 °C 29.93 in /  1013.4 hPa Calm     69 % 0.00 in /  0 mm
17:08 76.3 °F /  24.6 °C 65.4 °F /  18.6 °C 29.93 in /  1013.4 hPa Calm     69 % 0.00 in /  0 mm
17:13 76.2 °F /  24.6 °C 65.3 °F /  18.5 °C 29.92 in /  1013.1 hPa Calm     69 % 0.00 in /  0 mm
17:18 76.1 °F /  24.5 °C 65.6 °F /  18.7 °C 29.94 in /  1013.8 hPa Calm     70 % 0.00 in /  0 mm
17:23 76.0 °F /  24.4 °C 65.5 °F /  18.6 °C 29.95 in /  1014.1 hPa Calm     70 % 0.00 in /  0 mm
17:28 75.8 °F /  24.3 °C 65.3 °F /  18.5 °C 29.93 in /  1013.4 hPa Calm     70 % 0.00 in /  0 mm
17:33 75.7 °F /  24.3 °C 65.6 °F /  18.7 °C 29.93 in /  1013.4 hPa Calm     71 % 0.00 in /  0 mm
17:38 75.5 °F /  24.2 °C 65.8 °F /  18.8 °C 29.94 in /  1013.8 hPa Calm     72 % 0.00 in /  0 mm
17:43 75.4 °F /  24.1 °C 66.1 °F /  18.9 °C 29.95 in /  1014.1 hPa Calm     73 % 0.00 in /  0 mm
17:48 75.2 °F /  24 °C 65.9 °F /  18.8 °C 29.82 in /  1009.7 hPa Calm     73 % 0.00 in /  0 mm
17:53 75.1 °F /  23.9 °C 66.2 °F /  19 °C 29.81 in /  1009.4 hPa Calm     74 % 0.00 in /  0 mm
17:58 74.8 °F /  23.8 °C 66.3 °F /  19.1 °C 29.95 in /  1014.1 hPa Calm     75 % 0.00 in /  0 mm
18:03 74.6 °F /  23.7 °C 66.5 °F /  19.2 °C 29.94 in /  1013.8 hPa Calm     76 % 0.00 in /  0 mm
18:08 74.4 °F /  23.6 °C 66.7 °F /  19.3 °C 29.94 in /  1013.8 hPa Calm     77 % 0.00 in /  0 mm
18:13 74.0 °F /  23.3 °C 66.7 °F /  19.3 °C 29.91 in /  1012.8 hPa Calm     78 % 0.00 in /  0 mm
18:19 73.7 °F /  23.2 °C 66.8 °F /  19.3 °C 29.92 in /  1013.1 hPa Calm     79 % 0.00 in /  0 mm
18:24 73.4 °F /  23 °C 66.5 °F /  19.2 °C 29.99 in /  1015.5 hPa Calm     79 % 0.00 in /  0 mm
18:34 72.8 °F /  22.7 °C 66.3 °F /  19.1 °C 29.95 in /  1014.1 hPa Calm     80 % 0.00 in /  0 mm
18:39 72.5 °F /  22.5 °C 66.3 °F /  19.1 °C 29.95 in /  1014.1 hPa Calm     81 % 0.00 in /  0 mm
18:44 72.1 °F /  22.3 °C 66.3 °F /  19.1 °C 29.98 in /  1015.1 hPa Calm     82 % 0.00 in /  0 mm
18:45 72.1 °F /  22.3 °C 65.9 °F /  18.8 °C 29.96 in /  1014.4 hPa West 0.2 mph /  0.3 km/h 1.2 mph /  1.9 km/h 81 % 0.00 in /  0 mm
18:50 71.8 °F /  22.1 °C 66.0 °F /  18.9 °C 29.96 in /  1014.4 hPa Calm   1.2 mph /  1.9 km/h 82 % 0.00 in /  0 mm
18:55 71.4 °F /  21.9 °C 65.6 °F /  18.7 °C 29.95 in /  1014.1 hPa Calm     82 % 0.00 in /  0 mm
19:00 71.1 °F /  21.7 °C 65.3 °F /  18.5 °C 29.95 in /  1014.1 hPa Calm     82 % 0.00 in /  0 mm
19:05 70.7 °F /  21.5 °C 65.3 °F /  18.5 °C 29.98 in /  1015.1 hPa Calm     83 % 0.00 in /  0 mm
19:10 70.4 °F /  21.3 °C 65.0 °F /  18.3 °C 29.97 in /  1014.8 hPa West 0.4 mph /  0.6 km/h 1.2 mph /  1.9 km/h 83 % 0.00 in /  0 mm
19:20 70.0 °F /  21.1 °C 64.6 °F /  18.1 °C 29.98 in /  1015.1 hPa Calm     83 % 0.00 in /  0 mm
19:25 69.8 °F /  21 °C 64.7 °F /  18.2 °C 29.97 in /  1014.8 hPa Calm     84 % 0.00 in /  0 mm
19:30 69.5 °F /  20.8 °C 64.5 °F /  18.1 °C 29.98 in /  1015.1 hPa Calm     84 % 0.00 in /  0 mm
19:35 69.3 °F /  20.7 °C 64.3 °F /  17.9 °C 29.97 in /  1014.8 hPa Calm     84 % 0.00 in /  0 mm
19:40 69.0 °F /  20.6 °C 64.0 °F /  17.8 °C 29.97 in /  1014.8 hPa Calm     84 % 0.00 in /  0 mm
19:45 68.8 °F /  20.4 °C 64.1 °F /  17.8 °C 29.97 in /  1014.8 hPa Calm     85 % 0.00 in /  0 mm
19:50 68.6 °F /  20.3 °C 64.2 °F /  17.9 °C 29.90 in /  1012.4 hPa Calm     86 % 0.00 in /  0 mm
19:55 68.4 °F /  20.2 °C 63.7 °F /  17.6 °C 29.86 in /  1011.1 hPa Calm     85 % 0.00 in /  0 mm
20:00 68.2 °F /  20.1 °C 63.9 °F /  17.7 °C 29.98 in /  1015.1 hPa Calm     86 % 0.00 in /  0 mm
20:05 68.0 °F /  20 °C 63.7 °F /  17.6 °C 29.98 in /  1015.1 hPa Calm     86 % 0.00 in /  0 mm
20:10 67.9 °F /  19.9 °C 63.9 °F /  17.7 °C 29.79 in /  1008.7 hPa Calm     87 % 0.00 in /  0 mm
20:15 67.6 °F /  19.8 °C 63.6 °F /  17.6 °C 29.82 in /  1009.7 hPa Calm     87 % 0.00 in /  0 mm
20:20 67.5 °F /  19.7 °C 63.5 °F /  17.5 °C 29.85 in /  1010.7 hPa Calm     87 % 0.00 in /  0 mm
20:25 67.3 °F /  19.6 °C 63.3 °F /  17.4 °C 29.89 in /  1012.1 hPa Calm     87 % 0.00 in /  0 mm
20:30 67.1 °F /  19.5 °C 63.1 °F /  17.3 °C 29.80 in /  1009 hPa Calm   1.2 mph /  1.9 km/h 87 % 0.00 in /  0 mm
20:35 67.0 °F /  19.4 °C 63.3 °F /  17.4 °C 29.86 in /  1011.1 hPa Calm     88 % 0.00 in /  0 mm
20:40 66.8 °F /  19.3 °C 63.1 °F /  17.3 °C 29.97 in /  1014.8 hPa Calm   1.2 mph /  1.9 km/h 88 % 0.00 in /  0 mm
20:45 66.7 °F /  19.3 °C 63.0 °F /  17.2 °C 29.78 in /  1008.4 hPa Calm   1.2 mph /  1.9 km/h 88 % 0.00 in /  0 mm
20:51 66.6 °F /  19.2 °C 62.9 °F /  17.2 °C 29.86 in /  1011.1 hPa Calm     88 % 0.00 in /  0 mm
20:55 66.4 °F /  19.1 °C 62.7 °F /  17.1 °C 29.85 in /  1010.7 hPa Calm     88 % 0.00 in /  0 mm
21:01 66.3 °F /  19.1 °C 62.6 °F /  17 °C 29.85 in /  1010.7 hPa Calm     88 % 0.00 in /  0 mm
21:06 66.2 °F /  19 °C 62.9 °F /  17.2 °C 29.80 in /  1009 hPa Calm     89 % 0.00 in /  0 mm
21:11 66.1 °F /  18.9 °C 62.8 °F /  17.1 °C 29.82 in /  1009.7 hPa Calm     89 % 0.00 in /  0 mm
21:16 66.0 °F /  18.9 °C 62.7 °F /  17.1 °C 29.73 in /  1006.7 hPa Calm     89 % 0.00 in /  0 mm
21:21 65.8 °F /  18.8 °C 62.5 °F /  16.9 °C 29.77 in /  1008 hPa Calm     89 % 0.00 in /  0 mm
21:26 65.7 °F /  18.7 °C 62.4 °F /  16.9 °C 29.71 in /  1006 hPa Calm     89 % 0.00 in /  0 mm
21:31 65.6 °F /  18.7 °C 62.6 °F /  17 °C 29.68 in /  1005 hPa Calm     90 % 0.00 in /  0 mm
21:36 65.5 °F /  18.6 °C 62.5 °F /  16.9 °C 29.75 in /  1007.3 hPa Calm     90 % 0.00 in /  0 mm
21:38 65.4 °F /  18.6 °C 62.4 °F /  16.9 °C 29.75 in /  1007.3 hPa Calm     90 % 0.00 in /  0 mm
21:43 65.3 °F /  18.5 °C 62.3 °F /  16.8 °C 30.01 in /  1016.1 hPa Calm     90 % 0.00 in /  0 mm
21:48 65.2 °F /  18.4 °C 62.2 °F /  16.8 °C 29.85 in /  1010.7 hPa Calm     90 % 0.00 in /  0 mm
21:53 65.1 °F /  18.4 °C 62.1 °F /  16.7 °C 29.98 in /  1015.1 hPa Calm     90 % 0.00 in /  0 mm
21:58 65.0 °F /  18.3 °C 62.0 °F /  16.7 °C 29.70 in /  1005.6 hPa Calm     90 % 0.00 in /  0 mm
22:03 64.9 °F /  18.3 °C 62.2 °F /  16.8 °C 29.80 in /  1009 hPa Calm     91 % 0.00 in /  0 mm
22:08 64.7 °F /  18.2 °C 61.7 °F /  16.5 °C 30.01 in /  1016.1 hPa Calm     90 % 0.00 in /  0 mm
22:13 64.6 °F /  18.1 °C 61.9 °F /  16.6 °C 29.76 in /  1007.7 hPa Calm     91 % 0.00 in /  0 mm
22:18 64.5 °F /  18.1 °C 61.8 °F /  16.6 °C 29.86 in /  1011.1 hPa Calm     91 % 0.00 in /  0 mm
22:23 64.4 °F /  18 °C 61.7 °F /  16.5 °C 29.94 in /  1013.8 hPa Calm     91 % 0.00 in /  0 mm
22:28 64.3 °F /  17.9 °C 61.6 °F /  16.4 °C 29.87 in /  1011.4 hPa Calm     91 % 0.00 in /  0 mm
22:33 64.2 °F /  17.9 °C 61.5 °F /  16.4 °C 29.97 in /  1014.8 hPa Calm     91 % 0.00 in /  0 mm
22:38 64.1 °F /  17.8 °C 61.4 °F /  16.3 °C 29.82 in /  1009.7 hPa Calm     91 % 0.00 in /  0 mm
22:43 64.0 °F /  17.8 °C 61.3 °F /  16.3 °C 29.81 in /  1009.4 hPa Calm   1.2 mph /  1.9 km/h 91 % 0.00 in /  0 mm
22:48 63.9 °F /  17.7 °C 61.2 °F /  16.2 °C 29.98 in /  1015.1 hPa Calm     91 % 0.00 in /  0 mm
22:53 63.8 °F /  17.7 °C 61.1 °F /  16.2 °C 30.00 in /  1015.8 hPa Calm     91 % 0.00 in /  0 mm
22:59 63.7 °F /  17.6 °C 61.0 °F /  16.1 °C 29.95 in /  1014.1 hPa Calm     91 % 0.00 in /  0 mm
23:04 63.6 °F /  17.6 °C 60.9 °F /  16.1 °C 29.84 in /  1010.4 hPa Calm     91 % 0.00 in /  0 mm
23:09 63.5 °F /  17.5 °C 60.8 °F /  16 °C 29.79 in /  1008.7 hPa Calm   1.0 mph /  1.6 km/h 91 % 0.00 in /  0 mm
23:16 63.4 °F /  17.4 °C 61.0 °F /  16.1 °C 30.06 in /  1017.8 hPa Calm     92 % 0.00 in /  0 mm
23:21 63.3 °F /  17.4 °C 60.9 °F /  16.1 °C 29.97 in /  1014.8 hPa Calm     92 % 0.00 in /  0 mm
23:22 63.4 °F /  17.4 °C 61.0 °F /  16.1 °C 29.80 in /  1009 hPa Calm     92 % 0.00 in /  0 mm
23:24 63.3 °F /  17.4 °C 61.2 °F /  16.2 °C 29.89 in /  1012.1 hPa Calm     93 % 0.00 in /  0 mm
23:27 63.3 °F /  17.4 °C 61.2 °F /  16.2 °C 30.06 in /  1017.8 hPa Calm     93 % 0.00 in /  0 mm
23:32 63.2 °F /  17.3 °C 61.1 °F /  16.2 °C 29.98 in /  1015.1 hPa Calm     93 % 0.00 in /  0 mm
23:37 63.2 °F /  17.3 °C 61.1 °F /  16.2 °C 29.88 in /  1011.7 hPa Calm     93 % 0.00 in /  0 mm
23:39 63.2 °F /  17.3 °C 61.1 °F /  16.2 °C 29.82 in /  1009.7 hPa Calm     93 % 0.00 in /  0 mm
23:49 63.1 °F /  17.3 °C 61.0 °F /  16.1 °C 30.05 in /  1017.5 hPa Calm     93 % 0.00 in /  0 mm
23:54 63.1 °F /  17.3 °C 61.0 °F /  16.1 °C 29.98 in /  1015.1 hPa Calm   1.2 mph /  1.9 km/h 93 % 0.00 in /  0 mm
23:59 63.0 °F /  17.2 °C 60.9 °F /  16.1 °C 30.06 in /  1017.8 hPa Calm     93 % 0.00 in /  0 mm
Crab Meadow Weather
Compliments of Weather Underground - 3 mb

Script developed by  Jim McMurry - jmcmurry@mwt.net Adapted for the template by  Wim van der Kuil - Leuven-Template.eu

Rain: The total amount of precipitation the earth receives each year as snow, hail, and rain is equivalent to 10 million gallons of water for every person in the United States.